createdAt,value
2023-05-13T00:00:49.196Z,12.30
2023-05-13T00:03:16.463Z,12.30
2023-05-13T00:05:43.637Z,12.30
2023-05-13T00:08:11.938Z,12.30
2023-05-13T00:10:39.124Z,12.20
2023-05-13T00:13:06.335Z,12.20
2023-05-13T00:15:33.518Z,12.20
2023-05-13T00:18:00.730Z,12.20
2023-05-13T00:20:27.891Z,12.10
2023-05-13T00:22:54.989Z,12.10
2023-05-13T00:25:22.045Z,12.10
2023-05-13T00:27:49.162Z,12.10
2023-05-13T00:30:16.468Z,12.00
2023-05-13T00:32:43.583Z,12.00
2023-05-13T00:35:10.651Z,12.00
2023-05-13T00:37:37.832Z,12.00
2023-05-13T00:40:05.570Z,12.00
2023-05-13T00:42:32.667Z,12.00
2023-05-13T00:44:59.706Z,12.00
2023-05-13T00:47:26.950Z,12.10
2023-05-13T00:49:54.226Z,12.10
2023-05-13T00:52:21.381Z,12.10
2023-05-13T00:54:48.411Z,12.00
2023-05-13T00:57:15.585Z,11.90
2023-05-13T00:59:42.660Z,11.80
2023-05-13T01:02:16.007Z,11.80
2023-05-13T01:04:49.946Z,11.70
2023-05-13T01:08:13.736Z,11.70
2023-05-13T01:11:04.969Z,11.60
2023-05-13T01:13:39.891Z,11.50
2023-05-13T01:16:29.078Z,11.40
2023-05-13T01:19:00.485Z,11.40
2023-05-13T01:21:29.100Z,11.30
2023-05-13T01:23:56.492Z,11.30
2023-05-13T01:26:26.704Z,11.30
2023-05-13T01:28:55.415Z,11.30
2023-05-13T01:31:24.147Z,11.30
2023-05-13T01:33:52.613Z,11.30
2023-05-13T01:36:19.916Z,11.30
2023-05-13T01:38:48.769Z,11.40
2023-05-13T01:41:16.183Z,11.30
2023-05-13T01:43:43.365Z,11.30
2023-05-13T01:46:14.095Z,11.30
2023-05-13T01:48:41.659Z,11.20
2023-05-13T01:51:09.449Z,11.20
2023-05-13T01:53:36.650Z,11.10
2023-05-13T01:56:03.936Z,11.00
2023-05-13T01:58:31.669Z,11.00
2023-05-13T02:00:58.823Z,11.10
2023-05-13T02:03:26.105Z,11.00
2023-05-13T02:05:53.820Z,11.10
2023-05-13T02:08:22.207Z,11.10
2023-05-13T02:11:00.176Z,11.10
2023-05-13T02:13:29.119Z,11.10
2023-05-13T02:15:56.619Z,11.20
2023-05-13T02:18:24.489Z,11.30
2023-05-13T02:20:51.703Z,11.30
2023-05-13T02:23:18.829Z,11.40
2023-05-13T02:25:45.869Z,11.50
2023-05-13T02:28:13.036Z,11.30
2023-05-13T02:30:41.875Z,11.20
2023-05-13T02:33:09.272Z,11.10
2023-05-13T02:35:36.502Z,11.00
2023-05-13T02:38:06.722Z,10.90
2023-05-13T02:40:35.048Z,10.80
2023-05-13T02:43:02.137Z,10.80
2023-05-13T02:45:42.447Z,10.70
2023-05-13T02:48:11.139Z,10.60
2023-05-13T02:50:40.457Z,10.60
2023-05-13T02:53:08.971Z,10.50
2023-05-13T02:55:39.579Z,10.50
2023-05-13T02:58:06.656Z,10.40
2023-05-13T03:00:33.973Z,10.30
2023-05-13T03:03:01.824Z,10.30
2023-05-13T03:05:30.004Z,10.20
2023-05-13T03:07:58.364Z,10.20
2023-05-13T03:10:26.333Z,10.10
2023-05-13T03:12:53.475Z,10.10
2023-05-13T03:15:20.561Z,10.10
2023-05-13T03:17:47.758Z,10.10
2023-05-13T03:20:15.053Z,10.10
2023-05-13T03:22:42.687Z,10.20
2023-05-13T03:25:11.304Z,10.10
2023-05-13T03:27:46.789Z,10.10
2023-05-13T03:30:15.376Z,10.10
2023-05-13T03:32:56.758Z,10.10
2023-05-13T03:35:24.350Z,10.10
2023-05-13T03:37:52.643Z,10.20
2023-05-13T03:40:20.156Z,10.20
2023-05-13T03:42:47.924Z,10.20
2023-05-13T03:45:15.259Z,10.20
2023-05-13T03:47:45.928Z,10.10
2023-05-13T03:50:16.144Z,10.00
2023-05-13T03:52:46.869Z,10.00
2023-05-13T03:55:15.252Z,9.90
2023-05-13T03:57:47.029Z,9.90
2023-05-13T04:00:15.324Z,9.90
2023-05-13T04:02:42.837Z,9.90
2023-05-13T04:05:13.546Z,9.90
2023-05-13T04:07:41.426Z,9.80
2023-05-13T04:10:11.671Z,9.80
2023-05-13T04:12:40.632Z,9.80
2023-05-13T04:15:08.504Z,9.70
2023-05-13T04:17:35.712Z,9.70
2023-05-13T04:20:03.095Z,9.60
2023-05-13T04:22:30.684Z,9.60
2023-05-13T04:24:57.734Z,9.60
2023-05-13T04:27:24.970Z,9.60
2023-05-13T04:29:57.816Z,9.60
2023-05-13T04:32:25.751Z,9.60
2023-05-13T04:34:55.266Z,9.60
2023-05-13T04:37:24.657Z,9.60
2023-05-13T04:39:54.812Z,9.70
2023-05-13T04:42:24.263Z,9.70
2023-05-13T04:44:51.397Z,9.80
2023-05-13T04:47:19.126Z,9.80
2023-05-13T04:49:46.207Z,9.80
2023-05-13T04:52:13.987Z,9.90
2023-05-13T04:54:41.396Z,9.90
2023-05-13T04:57:09.252Z,10.00
2023-05-13T04:59:36.930Z,10.00
2023-05-13T05:02:04.272Z,10.00
2023-05-13T05:04:31.586Z,10.00
2023-05-13T05:06:58.774Z,10.10
2023-05-13T05:09:25.862Z,10.10
2023-05-13T05:11:54.120Z,10.20
2023-05-13T05:14:24.293Z,10.30
2023-05-13T05:16:51.435Z,10.50
2023-05-13T05:19:24.065Z,10.60
2023-05-13T05:21:52.435Z,10.80
2023-05-13T05:24:19.816Z,11.10
2023-05-13T05:26:48.169Z,11.30
2023-05-13T05:29:15.757Z,11.50
2023-05-13T05:31:44.513Z,11.60
2023-05-13T05:34:12.243Z,11.70
2023-05-13T05:36:39.655Z,11.80
2023-05-13T05:39:06.878Z,11.80
2023-05-13T05:41:36.591Z,11.90
2023-05-13T05:44:03.764Z,11.90
2023-05-13T05:46:32.693Z,12.00
2023-05-13T05:49:02.529Z,12.10
2023-05-13T05:51:33.038Z,12.10
2023-05-13T05:54:02.288Z,12.10
2023-05-13T05:56:29.760Z,12.10
2023-05-13T05:58:58.397Z,12.10
2023-05-13T06:01:33.174Z,12.20
2023-05-13T06:04:00.680Z,12.20
2023-05-13T06:06:27.925Z,12.30
2023-05-13T06:08:55.000Z,12.50
2023-05-13T06:11:22.892Z,12.60
2023-05-13T06:13:51.333Z,12.80
2023-05-13T06:16:18.498Z,12.80
2023-05-13T06:18:45.731Z,12.80
2023-05-13T06:21:12.952Z,12.90
2023-05-13T06:23:40.579Z,12.90
2023-05-13T06:26:07.764Z,13.00
2023-05-13T06:28:35.736Z,13.00
2023-05-13T06:31:03.021Z,13.10
2023-05-13T06:33:30.238Z,13.20
2023-05-13T06:35:57.349Z,13.30
2023-05-13T06:38:25.745Z,13.50
2023-05-13T06:40:56.740Z,13.60
2023-05-13T06:43:31.217Z,13.70
2023-05-13T06:46:00.030Z,13.80
2023-05-13T06:48:28.608Z,13.80
2023-05-13T06:50:55.817Z,13.90
2023-05-13T06:53:22.907Z,13.90
2023-05-13T06:55:50.478Z,13.90
2023-05-13T06:58:17.723Z,13.90
2023-05-13T07:00:46.742Z,14.00
2023-05-13T07:03:13.924Z,14.00
2023-05-13T07:05:41.149Z,14.00
2023-05-13T07:08:08.776Z,14.00
2023-05-13T07:10:37.044Z,14.10
2023-05-13T07:13:04.331Z,14.20
2023-05-13T07:15:31.439Z,14.20
2023-05-13T07:17:58.480Z,14.30
2023-05-13T07:20:26.678Z,14.40
2023-05-13T07:22:53.962Z,14.40
2023-05-13T07:25:21.287Z,14.50
2023-05-13T07:27:48.574Z,14.50
2023-05-13T07:30:15.757Z,14.60
2023-05-13T07:32:42.880Z,14.70
2023-05-13T07:35:10.600Z,14.80
2023-05-13T07:37:37.643Z,14.80
2023-05-13T07:40:08.447Z,14.90
2023-05-13T07:42:36.594Z,15.00
2023-05-13T07:45:05.457Z,15.10
2023-05-13T07:47:33.452Z,15.20
2023-05-13T07:50:00.714Z,15.30
2023-05-13T07:52:27.941Z,15.40
2023-05-13T07:54:55.364Z,15.40
2023-05-13T07:57:22.556Z,15.50
2023-05-13T07:59:49.676Z,15.60
2023-05-13T08:02:16.809Z,15.70
2023-05-13T08:04:44.017Z,15.70
2023-05-13T08:07:11.786Z,15.80
2023-05-13T08:09:38.903Z,15.80
2023-05-13T08:12:06.650Z,16.00
2023-05-13T08:14:33.806Z,16.00
2023-05-13T08:17:01.118Z,16.10
2023-05-13T08:19:28.226Z,16.20
2023-05-13T08:21:55.455Z,16.30
2023-05-13T08:24:22.468Z,16.40
2023-05-13T08:26:49.676Z,16.40
2023-05-13T08:29:16.734Z,16.40
2023-05-13T08:31:43.957Z,16.50
2023-05-13T08:34:11.150Z,16.60
2023-05-13T08:36:38.328Z,16.70
2023-05-13T08:39:05.437Z,16.70
2023-05-13T08:41:34.104Z,16.70
2023-05-13T08:44:07.539Z,16.80
2023-05-13T08:46:38.180Z,16.90
2023-05-13T08:49:05.567Z,17.00
2023-05-13T08:51:32.616Z,17.00
2023-05-13T08:54:01.406Z,17.00
2023-05-13T08:56:29.819Z,17.00
2023-05-13T08:58:56.839Z,17.10
2023-05-13T09:01:26.498Z,17.10
2023-05-13T09:04:06.918Z,17.30
2023-05-13T09:06:34.161Z,17.40
2023-05-13T09:09:03.074Z,17.50
2023-05-13T09:11:30.176Z,17.50
2023-05-13T09:14:03.539Z,17.60
2023-05-13T09:16:32.711Z,17.60
2023-05-13T09:19:02.892Z,17.70
2023-05-13T09:21:38.006Z,17.80
2023-05-13T09:24:19.113Z,17.80
2023-05-13T09:26:47.425Z,17.90
2023-05-13T09:29:25.978Z,18.00
2023-05-13T09:31:57.853Z,18.00
2023-05-13T09:34:30.774Z,18.10
2023-05-13T09:37:04.822Z,18.10
2023-05-13T09:39:41.242Z,18.20
2023-05-13T09:42:18.997Z,18.30
2023-05-13T09:44:47.454Z,18.30
2023-05-13T09:47:15.746Z,18.40
2023-05-13T09:49:46.224Z,18.40
2023-05-13T09:52:17.262Z,18.40
2023-05-13T09:54:45.131Z,18.40
2023-05-13T09:57:14.991Z,18.50
2023-05-13T09:59:42.253Z,18.50
2023-05-13T10:02:10.215Z,18.60
2023-05-13T10:04:37.771Z,18.60
2023-05-13T10:07:05.938Z,18.70
2023-05-13T10:09:37.581Z,18.80
2023-05-13T10:12:08.823Z,18.90
2023-05-13T10:14:38.269Z,18.80
2023-05-13T10:17:06.765Z,18.80
2023-05-13T10:19:34.953Z,19.00
2023-05-13T10:22:03.078Z,19.00
2023-05-13T10:24:30.647Z,19.00
2023-05-13T10:26:58.996Z,19.10
2023-05-13T10:29:26.689Z,19.20
2023-05-13T10:31:54.604Z,19.20
2023-05-13T10:34:23.068Z,19.30
2023-05-13T10:37:03.745Z,19.40
2023-05-13T10:39:49.686Z,19.50
2023-05-13T10:42:43.453Z,19.40
2023-05-13T10:45:11.454Z,19.50
2023-05-13T10:47:39.275Z,19.50
2023-05-13T10:50:23.454Z,19.60
2023-05-13T10:52:51.281Z,19.70
2023-05-13T10:55:20.664Z,19.70
2023-05-13T10:58:14.373Z,19.70
2023-05-13T11:00:45.896Z,19.90
2023-05-13T11:03:29.576Z,20.00
2023-05-13T11:06:19.485Z,20.10
2023-05-13T11:08:49.015Z,20.20
2023-05-13T11:11:24.834Z,20.30
2023-05-13T11:14:18.631Z,20.20
2023-05-13T11:17:04.406Z,20.20
2023-05-13T11:19:35.066Z,20.20
2023-05-13T11:22:20.116Z,20.20
2023-05-13T11:25:11.711Z,20.30
2023-05-13T11:27:43.099Z,20.40
2023-05-13T11:30:30.593Z,20.50
2023-05-13T11:32:59.180Z,20.60
2023-05-13T11:35:33.554Z,20.50
2023-05-13T11:38:03.300Z,20.60
2023-05-13T11:40:36.345Z,20.60
2023-05-13T11:43:06.611Z,20.70
2023-05-13T11:45:38.977Z,20.80
2023-05-13T11:48:23.674Z,20.80
2023-05-13T11:50:54.385Z,20.90
2023-05-13T11:53:22.960Z,21.00
2023-05-13T11:55:50.301Z,21.00
2023-05-13T11:58:17.541Z,21.10
2023-05-13T12:00:46.454Z,21.30
2023-05-13T12:03:16.141Z,21.20
2023-05-13T12:05:46.906Z,21.60
2023-05-13T12:08:14.055Z,21.80
2023-05-13T12:10:45.119Z,21.50
2023-05-13T12:13:12.707Z,21.30
2023-05-13T12:15:40.460Z,21.60
2023-05-13T12:18:08.254Z,21.80
2023-05-13T12:20:35.753Z,21.70
2023-05-13T12:23:04.246Z,21.30
2023-05-13T12:25:40.176Z,21.20
2023-05-13T12:28:27.024Z,21.40
2023-05-13T12:31:02.877Z,21.60
2023-05-13T12:33:41.737Z,21.90
2023-05-13T12:36:22.071Z,22.10
2023-05-13T12:39:05.235Z,21.80
2023-05-13T12:41:38.546Z,21.60
2023-05-13T12:44:15.597Z,21.50
2023-05-13T12:47:01.252Z,21.60
2023-05-13T12:49:28.432Z,21.70
2023-05-13T12:51:56.844Z,21.90
2023-05-13T12:54:24.218Z,22.10
2023-05-13T12:56:52.248Z,22.20
2023-05-13T12:59:19.403Z,22.40
2023-05-13T13:01:48.238Z,22.50
2023-05-13T13:04:16.970Z,22.40
2023-05-13T13:06:44.245Z,22.20
2023-05-13T13:09:11.428Z,22.00
2023-05-13T13:11:39.309Z,21.80
2023-05-13T13:14:06.508Z,22.00
2023-05-13T13:16:33.752Z,22.30
2023-05-13T13:19:01.974Z,22.60
2023-05-13T13:21:29.308Z,22.60
2023-05-13T13:23:56.459Z,22.30
2023-05-13T13:26:23.726Z,22.10
2023-05-13T13:28:50.852Z,21.90
2023-05-13T13:31:18.134Z,21.80
2023-05-13T13:33:45.469Z,21.50
2023-05-13T13:36:12.651Z,21.10
2023-05-13T13:38:39.762Z,21.00
2023-05-13T13:41:06.931Z,21.30
2023-05-13T13:43:34.035Z,21.70
2023-05-13T13:46:01.252Z,22.00
2023-05-13T13:48:28.430Z,22.00
2023-05-13T13:50:55.589Z,22.00
2023-05-13T13:53:22.623Z,22.30
2023-05-13T13:55:49.822Z,22.50
2023-05-13T13:58:17.020Z,22.60
2023-05-13T14:00:44.828Z,22.70
2023-05-13T14:03:12.067Z,22.70
2023-05-13T14:05:39.318Z,22.30
2023-05-13T14:08:06.433Z,22.00
2023-05-13T14:10:33.602Z,22.20
2023-05-13T14:13:00.798Z,22.50
2023-05-13T14:15:28.865Z,22.20
2023-05-13T14:17:57.150Z,21.80
2023-05-13T14:20:29.057Z,21.50
2023-05-13T14:22:56.599Z,21.50
2023-05-13T14:25:23.868Z,21.70
2023-05-13T14:27:51.026Z,22.10
2023-05-13T14:30:18.063Z,22.40
2023-05-13T14:32:45.420Z,22.60
2023-05-13T14:35:13.599Z,22.30
2023-05-13T14:37:42.575Z,21.80
2023-05-13T14:40:10.399Z,22.00
2023-05-13T14:42:37.577Z,22.50
2023-05-13T14:45:06.031Z,22.50
2023-05-13T14:47:33.220Z,22.10
2023-05-13T14:50:00.363Z,21.90
2023-05-13T14:52:27.452Z,21.40
2023-05-13T14:54:54.721Z,21.20
2023-05-13T14:57:21.884Z,21.00
2023-05-13T14:59:48.893Z,20.80
2023-05-13T15:02:17.335Z,20.80
2023-05-13T15:04:47.060Z,20.90
2023-05-13T15:07:14.215Z,21.70
2023-05-13T15:09:41.277Z,22.60
2023-05-13T15:12:09.044Z,23.10
2023-05-13T15:14:36.112Z,23.30
2023-05-13T15:17:03.352Z,23.40
2023-05-13T15:19:30.740Z,23.90
2023-05-13T15:21:58.016Z,24.10
2023-05-13T15:24:25.175Z,23.60
2023-05-13T15:26:52.391Z,22.90
2023-05-13T15:29:19.466Z,22.20
2023-05-13T15:31:49.727Z,22.60
2023-05-13T15:34:16.896Z,23.20
2023-05-13T15:36:43.977Z,23.70
2023-05-13T15:39:11.288Z,23.60
2023-05-13T15:41:38.670Z,23.70
2023-05-13T15:44:05.812Z,23.60
2023-05-13T15:46:35.973Z,23.10
2023-05-13T15:49:03.307Z,22.30
2023-05-13T15:51:30.422Z,21.80
2023-05-13T15:53:57.538Z,21.30
2023-05-13T15:56:25.802Z,21.10
2023-05-13T15:58:53.190Z,20.80
2023-05-13T16:01:20.370Z,20.70
2023-05-13T16:03:47.624Z,20.80
2023-05-13T16:06:14.888Z,21.50
2023-05-13T16:08:42.037Z,22.00
2023-05-13T16:11:09.571Z,22.50
2023-05-13T16:13:36.768Z,22.80
2023-05-13T16:16:04.008Z,23.00
2023-05-13T16:18:31.284Z,23.10
2023-05-13T16:20:58.432Z,23.40
2023-05-13T16:23:25.598Z,23.70
2023-05-13T16:25:52.724Z,24.00
2023-05-13T16:28:19.847Z,24.40
2023-05-13T16:30:46.958Z,24.40
2023-05-13T16:33:15.933Z,23.90
2023-05-13T16:35:43.614Z,23.90
2023-05-13T16:38:11.340Z,23.40
2023-05-13T16:40:38.472Z,22.30
2023-05-13T16:43:05.730Z,21.50
2023-05-13T16:45:32.980Z,21.00
2023-05-13T16:48:00.454Z,20.60
2023-05-13T16:50:27.794Z,20.30
2023-05-13T16:52:54.903Z,20.30
2023-05-13T16:55:22.554Z,20.80
2023-05-13T16:57:49.706Z,21.40
2023-05-13T17:00:17.314Z,21.70
2023-05-13T17:02:44.641Z,21.80
2023-05-13T17:05:11.972Z,21.70
2023-05-13T17:07:39.614Z,21.20
2023-05-13T17:10:07.692Z,20.80
2023-05-13T17:12:34.751Z,20.50
2023-05-13T17:15:02.035Z,20.40
2023-05-13T17:17:29.137Z,20.20
2023-05-13T17:19:56.405Z,20.10
2023-05-13T17:22:23.584Z,19.90
2023-05-13T17:24:50.708Z,19.80
2023-05-13T17:27:17.908Z,19.70
2023-05-13T17:29:45.016Z,19.60
2023-05-13T17:32:12.176Z,19.60
2023-05-13T17:34:39.376Z,19.70
2023-05-13T17:37:06.477Z,19.70
2023-05-13T17:39:33.518Z,19.70
2023-05-13T17:42:00.634Z,19.80
2023-05-13T17:44:27.748Z,20.00
2023-05-13T17:46:55.108Z,20.10
2023-05-13T17:49:22.141Z,20.30
2023-05-13T17:51:49.263Z,20.50
2023-05-13T17:54:16.315Z,20.50
2023-05-13T17:56:43.394Z,20.40
2023-05-13T17:59:11.737Z,20.40
2023-05-13T18:01:38.919Z,20.30
2023-05-13T18:04:05.997Z,20.10
2023-05-13T18:06:33.012Z,19.70
2023-05-13T18:09:00.154Z,19.30
2023-05-13T18:11:27.182Z,18.90
2023-05-13T18:13:54.335Z,18.70
2023-05-13T18:16:21.471Z,18.70
2023-05-13T18:18:48.736Z,18.70
2023-05-13T18:21:16.092Z,18.70
2023-05-13T18:23:45.817Z,18.50
2023-05-13T18:26:12.902Z,18.50
2023-05-13T18:28:44.816Z,18.50
2023-05-13T18:31:12.196Z,18.40
2023-05-13T18:33:42.009Z,18.40
2023-05-13T18:36:10.240Z,18.30
2023-05-13T18:38:37.634Z,18.30
2023-05-13T18:41:06.013Z,18.30
2023-05-13T18:43:33.150Z,18.30
2023-05-13T18:46:00.519Z,18.20
2023-05-13T18:48:27.648Z,18.20
2023-05-13T18:50:54.864Z,18.10
2023-05-13T18:53:21.940Z,18.10
2023-05-13T18:55:49.073Z,17.90
2023-05-13T18:58:17.066Z,17.80
2023-05-13T19:00:44.554Z,17.60
2023-05-13T19:03:12.322Z,17.50
2023-05-13T19:05:39.845Z,17.30
2023-05-13T19:08:08.038Z,17.20
2023-05-13T19:10:40.008Z,17.10
2023-05-13T19:13:07.843Z,16.90
2023-05-13T19:15:35.375Z,16.80
2023-05-13T19:18:02.799Z,16.70
2023-05-13T19:20:30.293Z,16.70
2023-05-13T19:22:57.532Z,16.60
2023-05-13T19:25:24.663Z,16.40
2023-05-13T19:27:51.850Z,16.30
2023-05-13T19:30:18.969Z,16.20
2023-05-13T19:32:46.198Z,16.10
2023-05-13T19:35:13.430Z,16.00
2023-05-13T19:37:40.737Z,15.90
2023-05-13T19:40:08.493Z,15.90
2023-05-13T19:42:35.718Z,15.80
2023-05-13T19:45:06.303Z,15.70
2023-05-13T19:47:35.295Z,15.70
2023-05-13T19:50:03.045Z,15.60
2023-05-13T19:52:30.166Z,15.60
2023-05-13T19:54:57.336Z,15.60
2023-05-13T19:57:24.441Z,15.50
2023-05-13T19:59:52.305Z,15.50
2023-05-13T20:02:19.501Z,15.40
2023-05-13T20:04:46.604Z,15.30
2023-05-13T20:07:13.942Z,15.00
2023-05-13T20:09:41.033Z,14.80
2023-05-13T20:12:08.325Z,14.60
2023-05-13T20:14:45.178Z,14.50
2023-05-13T20:17:21.153Z,14.30
2023-05-13T20:19:54.709Z,14.10
2023-05-13T20:22:22.529Z,14.00
2023-05-13T20:24:51.383Z,14.00
2023-05-13T20:27:18.675Z,13.90
2023-05-13T20:29:47.962Z,13.80
2023-05-13T20:32:24.431Z,13.80
2023-05-13T20:34:52.790Z,13.70
2023-05-13T20:37:23.396Z,13.60
2023-05-13T20:39:51.243Z,13.50
2023-05-13T20:42:20.290Z,13.50
2023-05-13T20:44:47.656Z,13.40
2023-05-13T20:47:14.906Z,13.40
2023-05-13T20:49:43.956Z,13.30
2023-05-13T20:52:11.779Z,13.20
2023-05-13T20:54:39.324Z,13.10
2023-05-13T20:57:06.797Z,13.00
2023-05-13T20:59:34.892Z,12.90
2023-05-13T21:02:02.265Z,12.90
2023-05-13T21:04:30.045Z,12.90
2023-05-13T21:06:57.910Z,12.90
2023-05-13T21:09:25.148Z,12.80
2023-05-13T21:11:52.205Z,12.80
2023-05-13T21:14:19.301Z,12.80
2023-05-13T21:16:46.360Z,12.70
2023-05-13T21:19:23.361Z,12.70
2023-05-13T21:21:51.039Z,12.70
2023-05-13T21:24:22.414Z,12.50
2023-05-13T21:26:50.149Z,12.40
2023-05-13T21:29:18.957Z,12.40
2023-05-13T21:31:47.925Z,12.30
2023-05-13T21:34:15.214Z,12.20
2023-05-13T21:36:42.449Z,12.20
2023-05-13T21:39:12.091Z,12.20
2023-05-13T21:41:40.220Z,12.20
2023-05-13T21:44:07.943Z,12.20
2023-05-13T21:46:35.442Z,12.20
2023-05-13T21:49:03.733Z,12.10
2023-05-13T21:51:33.739Z,12.10
2023-05-13T21:54:01.357Z,12.00
2023-05-13T21:56:28.466Z,12.00
2023-05-13T21:58:55.864Z,12.10
2023-05-13T22:01:25.814Z,12.10
2023-05-13T22:03:55.329Z,12.10
2023-05-13T22:06:22.816Z,12.10
2023-05-13T22:08:52.341Z,12.10
2023-05-13T22:11:19.445Z,12.10
2023-05-13T22:13:46.677Z,12.10
2023-05-13T22:16:16.180Z,12.10
2023-05-13T22:18:43.796Z,12.10
2023-05-13T22:21:11.360Z,12.10
2023-05-13T22:23:38.607Z,12.00
2023-05-13T22:26:13.084Z,11.90
2023-05-13T22:28:40.519Z,12.00
2023-05-13T22:31:08.383Z,11.90
2023-05-13T22:33:35.574Z,11.90
2023-05-13T22:36:02.742Z,11.90
2023-05-13T22:38:35.837Z,11.90
2023-05-13T22:41:03.110Z,11.90
2023-05-13T22:43:30.307Z,11.90
2023-05-13T22:45:57.515Z,11.80
2023-05-13T22:48:24.973Z,11.80
2023-05-13T22:50:57.060Z,11.80
2023-05-13T22:53:25.132Z,11.70
2023-05-13T22:55:52.591Z,11.70
2023-05-13T22:58:22.878Z,11.60
2023-05-13T23:00:50.084Z,11.60
2023-05-13T23:03:17.498Z,11.70
2023-05-13T23:05:44.803Z,11.60
2023-05-13T23:08:12.623Z,11.60
2023-05-13T23:10:39.712Z,11.60
2023-05-13T23:13:06.755Z,11.60
2023-05-13T23:15:36.648Z,11.70
2023-05-13T23:18:04.059Z,11.70
2023-05-13T23:20:31.223Z,11.70
2023-05-13T23:22:58.383Z,11.60
2023-05-13T23:25:25.702Z,11.50
2023-05-13T23:27:52.831Z,11.50
2023-05-13T23:30:20.050Z,11.50
2023-05-13T23:32:47.363Z,11.60
2023-05-13T23:35:14.835Z,11.60
2023-05-13T23:37:41.959Z,11.60
2023-05-13T23:40:09.756Z,11.60
2023-05-13T23:42:36.881Z,11.70
2023-05-13T23:45:04.435Z,11.80
2023-05-13T23:47:31.591Z,11.70
2023-05-13T23:49:58.696Z,11.70
2023-05-13T23:52:25.824Z,11.70
2023-05-13T23:54:52.900Z,11.80
2023-05-13T23:57:20.044Z,11.70
2023-05-13T23:59:47.121Z,11.70
